Hobson, TX (78117)

10:22 PM CDT on September 15, 2014 (GMT -0500)
Karnes County | Change Station
CLOSE
Current Station
Personal Weather Station
Location: Karnes City, TX
Elevation: 381 ft
Nearby Weather Stations

Elev 381 ft 28.88 °N, 97.86 °W | Updated 23 seconds ago

Partly Cloudy
Partly Cloudy
83.3 °F
Feels Like 90 °F
N
4.0
Wind Variable Wind from WNW
Gusts 5.0 mph

Today
High -- | Low -- °F
--% Chance of Precip.
Yesterday
High -- | Low -- °F
Precip. -- in
7:16 AM 7:36 PM
Waning Gibbous, 49% visible
Pressure 30.07 in
Visibility 10.0 miles
Clouds Clear
Heat Index 90 °F
Dew Point 74 °F
Humidity 73%
Rainfall 0.00 in
Snow Depth Not available.
UV 0 out of 12
Pollen 9.60 out of 12
Air Quality Not available.
Flu Activity Not available.
METAR KPEZ 160315Z AUTO 00000KT 10SM CLR 25/20 A3007 RMK AO2 T02500200

More Conditions Fewer Conditions

Pressure 30.07 in
Visibility 10.0 miles
Clouds Clear
Heat Index 90 °F
Dew Point 74 °F
Humidity 73%
Rainfall 0.00 in
Snow Depth Not available.
UV 0 out of 12
Pollen 9.60 out of 12
Air Quality Not available.
Flu Activity Not available.
METAR KPEZ 160315Z AUTO 00000KT 10SM CLR 25/20 A3007 RMK AO2 T02500200

More Conditions Fewer Conditions

Nowcast | as of 9:02 PM CDT on September 15, 2014

Through midnight CDT...expect isolated showers to move west at 10 mph across parts of the coastal prairies. Expect rainfall amounts to range from a trace up to 1/4 inch...with measurable rainfall confined mainly to areas south of a Campbellton to La Grange line.

×

10-Day Weather Forecast

Almanac

Astronomy

Sep. 15, 2014 Rise Set
Actual Time 7:16 AM CDT 7:36 PM CDT
Civil Twilight 6:53 AM CDT 8:00 PM CDT
Nautical Twilight 6:25 AM CDT 8:28 PM CDT
Astronomical Twilight 5:57 AM CDT 8:56 PM CDT
Moon No Moon Rise 1:50 PM CDT (9/15)
Length of Visible Light 13h 07m
Length of Day
12h 20m
Tomorrow will be 1m 42s shorter.
Waning Gibbous, 49% of the Moon is Illuminated
Today
Waning Gibbous
Sep 24
New
Oct 1
First Quarter
Oct 8
Full
Oct 15
Last Quarter

Today's Extremes

State Highs State Lows

Community

WunderPhotos

Upload Photos

1,753,694 photos uploaded!

Nearby

Snow Depth

Station Depth Elevation
No new snow has been reported.

Earthquake Activity

City Distance Mag. Time & Date
No recent earthquake activity has been reported nearby.
Minimum magnitude displayed is 2.5.

Coastal Water Temperatures

Place Temperature
No Stations Reporting

Nearby Weather Stations